createdAt,value
2022-08-08T00:01:21.486Z,17.02
2022-08-08T00:07:12.937Z,18.51
2022-08-08T00:12:29.636Z,21.51
2022-08-08T00:18:03.673Z,20.97
2022-08-08T00:23:52.585Z,19.33
2022-08-08T00:29:07.912Z,18.41
2022-08-08T00:35:20.459Z,17.80
2022-08-08T00:41:09.729Z,17.29
2022-08-08T00:46:27.850Z,17.00
2022-08-08T00:52:02.785Z,18.31
2022-08-08T00:57:41.116Z,21.38
2022-08-08T01:03:58.833Z,21.65
2022-08-08T01:09:36.735Z,19.84
2022-08-08T01:15:06.986Z,18.71
2022-08-08T01:20:22.186Z,18.03
2022-08-08T01:26:13.109Z,17.58
2022-08-08T01:32:06.727Z,17.18
2022-08-08T01:37:57.486Z,16.86
2022-08-08T01:43:38.852Z,16.64
2022-08-08T01:49:37.130Z,17.85
2022-08-08T01:55:25.754Z,21.00
2022-08-08T02:01:15.857Z,20.35
2022-08-08T02:06:57.665Z,18.55
2022-08-08T02:12:31.330Z,17.65
2022-08-08T02:17:50.439Z,16.84
2022-08-08T02:23:16.026Z,16.03
2022-08-08T02:28:35.440Z,16.95
2022-08-08T02:34:09.887Z,19.86
2022-08-08T02:40:00.707Z,20.20
2022-08-08T02:45:51.191Z,18.34
2022-08-08T02:51:11.931Z,17.44
2022-08-08T02:56:58.848Z,16.92
2022-08-08T03:02:39.143Z,16.43
2022-08-08T03:08:06.289Z,17.95
2022-08-08T03:15:54.255Z,20.91
2022-08-08T03:19:17.816Z,20.94
2022-08-08T03:24:23.420Z,19.02
2022-08-08T03:29:56.179Z,17.97
2022-08-08T03:35:00.111Z,17.23
2022-08-08T03:40:06.559Z,16.72
2022-08-08T03:46:05.921Z,17.53
2022-08-08T03:50:49.088Z,20.56
2022-08-08T03:55:59.553Z,20.95
2022-08-08T04:01:23.046Z,19.20
2022-08-08T04:06:29.784Z,18.17
2022-08-08T04:11:57.633Z,17.52
2022-08-08T04:16:57.525Z,17.04
2022-08-08T04:22:00.975Z,16.77
2022-08-08T04:27:07.591Z,17.81
2022-08-08T04:32:30.937Z,20.58
2022-08-08T04:37:37.530Z,21.02
2022-08-08T04:42:55.902Z,19.31
2022-08-08T04:48:01.172Z,18.15
2022-08-08T04:53:13.869Z,17.62
2022-08-08T04:58:27.714Z,17.24
2022-08-08T05:04:09.567Z,18.15
2022-08-08T05:08:56.546Z,21.04
2022-08-08T05:14:07.152Z,21.60
2022-08-08T05:20:10.531Z,20.16
2022-08-08T05:24:38.839Z,19.32
2022-08-08T05:29:43.614Z,19.00
2022-08-08T05:34:51.419Z,18.94
2022-08-08T05:39:59.775Z,18.99
2022-08-08T05:45:10.222Z,19.09
2022-08-08T05:50:33.524Z,19.25
2022-08-08T05:56:11.313Z,19.38
2022-08-08T06:01:04.975Z,19.45
2022-08-08T06:06:10.049Z,19.54
2022-08-08T06:11:16.578Z,19.66
2022-08-08T06:16:27.513Z,19.77
2022-08-08T06:21:51.590Z,19.94
2022-08-08T06:27:06.337Z,20.12
2022-08-08T06:32:18.405Z,20.27
2022-08-08T06:37:28.182Z,20.43
2022-08-08T06:42:41.836Z,20.66
2022-08-08T06:47:58.099Z,20.83
2022-08-08T06:53:14.270Z,20.97
2022-08-08T06:58:30.418Z,21.09
2022-08-08T07:04:36.349Z,21.22
2022-08-08T07:09:45.761Z,21.40
2022-08-08T07:15:06.238Z,21.66
2022-08-08T07:20:30.064Z,21.92
2022-08-08T07:25:55.004Z,22.25
2022-08-08T07:31:00.119Z,22.60
2022-08-08T07:36:05.847Z,22.72
2022-08-08T07:41:23.545Z,22.88
2022-08-08T07:46:30.903Z,23.03
2022-08-08T07:51:45.459Z,23.12
2022-08-08T07:57:17.471Z,23.22
2022-08-08T08:02:38.632Z,23.34
2022-08-08T08:07:46.017Z,23.37
2022-08-08T08:13:25.612Z,23.35
2022-08-08T08:18:51.909Z,23.30
2022-08-08T08:24:02.734Z,23.48
2022-08-08T08:29:07.573Z,23.78
2022-08-08T08:34:18.514Z,24.07
2022-08-08T08:39:24.859Z,24.22
2022-08-08T08:44:49.720Z,24.11
2022-08-08T08:49:53.480Z,23.93
2022-08-08T08:55:02.518Z,23.72
2022-08-08T09:00:15.577Z,23.76
2022-08-08T09:05:49.156Z,24.09
2022-08-08T09:10:48.220Z,24.51
2022-08-08T09:16:03.384Z,24.89
2022-08-08T09:21:57.057Z,25.18
2022-08-08T09:27:03.445Z,25.45
2022-08-08T09:32:12.141Z,25.71
2022-08-08T09:37:57.866Z,26.00
2022-08-08T09:42:51.136Z,26.31
2022-08-08T09:48:10.075Z,26.41
2022-08-08T09:53:24.735Z,26.14
2022-08-08T09:58:47.776Z,25.58
2022-08-08T10:03:57.452Z,24.96
2022-08-08T10:09:00.780Z,24.46
2022-08-08T10:14:10.771Z,24.14
2022-08-08T10:19:57.278Z,23.99
2022-08-08T10:25:15.811Z,23.89
2022-08-08T10:31:46.938Z,23.87
2022-08-08T10:36:52.841Z,24.09
2022-08-08T10:42:15.308Z,24.35
2022-08-08T10:47:21.606Z,24.50
2022-08-08T10:52:44.543Z,24.33
2022-08-08T10:57:53.240Z,24.07
2022-08-08T11:02:58.868Z,23.93
2022-08-08T11:08:37.246Z,23.98
2022-08-08T11:13:29.967Z,24.19
2022-08-08T11:18:36.234Z,24.43
2022-08-08T11:23:43.481Z,24.63
2022-08-08T11:28:50.230Z,24.83
2022-08-08T11:34:23.373Z,25.03
2022-08-08T11:39:23.445Z,25.04
2022-08-08T11:44:30.532Z,25.06
2022-08-08T11:49:34.200Z,25.03
2022-08-08T11:54:46.440Z,25.04
2022-08-08T12:00:18.671Z,25.23
2022-08-08T12:05:38.905Z,25.55
2022-08-08T12:10:53.103Z,25.68
2022-08-08T12:16:13.587Z,25.66
2022-08-08T12:21:59.780Z,25.48
2022-08-08T12:27:45.250Z,25.33
2022-08-08T12:36:28.642Z,25.09
2022-08-08T12:41:57.152Z,24.76
2022-08-08T12:47:02.754Z,24.49
2022-08-08T12:52:14.136Z,24.37
2022-08-08T12:57:31.194Z,24.31
2022-08-08T13:02:37.826Z,24.37
2022-08-08T13:08:04.127Z,24.43
2022-08-08T13:13:07.962Z,24.44
2022-08-08T13:18:13.496Z,24.46
2022-08-08T13:23:37.088Z,24.51
2022-08-08T13:28:42.912Z,24.57
2022-08-08T13:33:50.239Z,24.50
2022-08-08T13:38:52.443Z,24.49
2022-08-08T13:43:54.736Z,24.58
2022-08-08T13:49:11.437Z,24.56
2022-08-08T13:54:22.103Z,24.48
2022-08-08T13:59:35.348Z,24.55
2022-08-08T14:05:09.136Z,24.64
2022-08-08T14:10:32.959Z,24.59
2022-08-08T14:15:46.242Z,24.54
2022-08-08T14:21:03.806Z,24.46
2022-08-08T14:26:22.946Z,24.33
2022-08-08T14:32:05.666Z,24.21
2022-08-08T14:36:53.538Z,24.08
2022-08-08T14:42:03.115Z,23.99
2022-08-08T14:47:16.787Z,23.93
2022-08-08T14:52:23.492Z,23.94
2022-08-08T14:58:03.176Z,23.94
2022-08-08T15:03:01.604Z,23.94
2022-08-08T15:08:21.565Z,23.91
2022-08-08T15:13:24.844Z,23.85
2022-08-08T15:18:29.796Z,23.83
2022-08-08T15:23:33.267Z,23.81
2022-08-08T15:28:37.037Z,23.78
2022-08-08T15:33:59.186Z,23.79
2022-08-08T15:39:01.706Z,23.84
2022-08-08T15:44:04.280Z,23.89
2022-08-08T15:49:06.440Z,23.95
2022-08-08T15:54:37.191Z,24.01
2022-08-08T16:00:05.912Z,24.02
2022-08-08T16:04:54.663Z,24.06
2022-08-08T16:13:07.198Z,24.03
2022-08-08T16:15:22.591Z,23.90
2022-08-08T16:20:24.992Z,23.64
2022-08-08T16:25:53.600Z,23.35
2022-08-08T16:30:55.049Z,23.08
2022-08-08T16:35:57.262Z,22.79
2022-08-08T16:41:01.963Z,22.63
2022-08-08T16:46:38.791Z,22.52
2022-08-08T16:55:05.345Z,22.42
2022-08-08T16:57:01.783Z,22.27
2022-08-08T17:02:32.663Z,22.15
2022-08-08T17:07:42.305Z,22.11
2022-08-08T17:12:52.976Z,21.96
2022-08-08T17:18:02.610Z,21.74
2022-08-08T17:23:17.825Z,21.48
2022-08-08T17:28:49.197Z,21.25
2022-08-08T17:34:48.043Z,21.03
2022-08-08T17:39:46.157Z,20.91
2022-08-08T17:44:44.304Z,20.83
2022-08-08T17:49:51.567Z,20.70
2022-08-08T17:54:56.414Z,20.62
2022-08-08T18:00:01.627Z,20.59
2022-08-08T18:05:06.347Z,20.55
2022-08-08T18:10:10.367Z,20.52
2022-08-08T18:15:14.637Z,20.48
2022-08-08T18:20:43.248Z,20.42
2022-08-08T18:25:41.495Z,20.41
2022-08-08T18:30:45.537Z,20.41
2022-08-08T18:35:49.049Z,20.39
2022-08-08T18:40:52.454Z,20.34
2022-08-08T18:46:52.740Z,20.28
2022-08-08T18:51:49.154Z,20.19
2022-08-08T18:56:45.665Z,20.06
2022-08-08T19:02:28.781Z,19.92
2022-08-08T19:07:16.182Z,19.87
2022-08-08T19:12:26.375Z,19.84
2022-08-08T19:17:48.238Z,19.80
2022-08-08T19:22:54.069Z,19.72
2022-08-08T19:27:59.997Z,19.62
2022-08-08T19:33:03.460Z,19.51
2022-08-08T19:38:06.893Z,19.41
2022-08-08T19:43:14.379Z,19.31
2022-08-08T19:48:28.328Z,20.33
2022-08-08T19:53:51.675Z,23.20
2022-08-08T19:58:57.707Z,23.59
2022-08-08T20:04:03.550Z,22.12
2022-08-08T20:09:09.011Z,21.19
2022-08-08T20:14:34.386Z,20.52
2022-08-08T20:19:43.302Z,19.99
2022-08-08T20:24:47.020Z,19.63
2022-08-08T20:30:00.250Z,19.40
2022-08-08T20:35:06.381Z,19.25
2022-08-08T20:40:16.650Z,19.10
2022-08-08T20:45:55.218Z,18.97
2022-08-08T20:50:44.961Z,20.25
2022-08-08T20:55:51.165Z,23.16
2022-08-08T21:00:54.850Z,23.58
2022-08-08T21:05:58.810Z,21.91
2022-08-08T21:11:02.609Z,20.91
2022-08-08T21:16:20.582Z,20.36
2022-08-08T21:21:39.392Z,19.95
2022-08-08T21:26:43.419Z,19.67
2022-08-08T21:31:53.363Z,19.48
2022-08-08T21:37:11.453Z,19.31
2022-08-08T21:42:19.626Z,20.36
2022-08-08T21:48:12.991Z,23.08
2022-08-08T21:54:32.400Z,22.97
2022-08-08T21:58:16.626Z,21.37
2022-08-08T22:03:20.552Z,20.45
2022-08-08T22:08:25.025Z,19.75
2022-08-08T22:13:51.391Z,19.26
2022-08-08T22:18:52.442Z,18.90
2022-08-08T22:23:56.326Z,19.77
2022-08-08T22:29:15.044Z,22.46
2022-08-08T22:34:24.970Z,22.61
2022-08-08T22:39:46.223Z,20.72
2022-08-08T22:44:54.829Z,19.50
2022-08-08T22:49:59.934Z,18.77
2022-08-08T22:55:06.269Z,19.48
2022-08-08T23:00:13.436Z,22.08
2022-08-08T23:05:16.982Z,22.32
2022-08-08T23:10:21.566Z,20.44
2022-08-08T23:16:38.460Z,19.18
2022-08-08T23:20:55.032Z,18.29
2022-08-08T23:25:59.616Z,19.00
2022-08-08T23:31:03.059Z,21.70
2022-08-08T23:36:09.117Z,22.04
2022-08-08T23:41:23.345Z,20.31
2022-08-08T23:49:07.122Z,19.25
2022-08-08T23:52:07.272Z,18.52
2022-08-08T23:57:25.460Z,19.37
